createdAt,value
2023-02-09T00:00:31.049Z,-4.11
2023-02-09T00:02:34.092Z,-4.25
2023-02-09T00:04:37.508Z,-4.07
2023-02-09T00:06:40.251Z,-4.59
2023-02-09T00:08:43.418Z,-4.45
2023-02-09T00:10:47.981Z,-4.07
2023-02-09T00:13:08.322Z,-4.05
2023-02-09T00:15:11.221Z,-4.08
2023-02-09T00:17:14.077Z,-4.14
2023-02-09T00:19:17.773Z,-4.17
2023-02-09T00:21:20.480Z,-4.72
2023-02-09T00:23:23.227Z,-4.15
2023-02-09T00:25:25.975Z,-4.28
2023-02-09T00:27:32.289Z,-4.02
2023-02-09T00:29:35.210Z,-3.96
2023-02-09T00:31:38.928Z,-4.63
2023-02-09T00:33:42.360Z,-4.61
2023-02-09T00:35:46.024Z,-4.02
2023-02-09T00:37:48.818Z,-4.19
2023-02-09T00:39:51.605Z,-4.70
2023-02-09T00:42:06.316Z,-4.22
2023-02-09T00:44:10.552Z,-4.77
2023-02-09T00:46:13.375Z,-4.26
2023-02-09T00:48:16.153Z,-4.26
2023-02-09T00:50:19.191Z,-4.33
2023-02-09T00:52:21.919Z,-4.36
2023-02-09T00:54:25.115Z,-4.36
2023-02-09T00:56:28.030Z,-5.51
2023-02-09T00:58:30.837Z,-4.46
2023-02-09T01:00:34.928Z,-4.49
2023-02-09T01:02:38.541Z,-4.80
2023-02-09T01:04:41.338Z,-4.65
2023-02-09T01:06:44.483Z,-4.54
2023-02-09T01:08:47.242Z,-4.54
2023-02-09T01:10:50.021Z,-4.87
2023-02-09T01:12:52.816Z,-4.76
2023-02-09T01:14:55.656Z,-4.77
2023-02-09T01:16:59.856Z,-4.79
2023-02-09T01:19:03.876Z,-4.88
2023-02-09T01:21:11.274Z,-4.86
2023-02-09T01:23:14.166Z,-5.33
2023-02-09T01:25:16.984Z,-5.47
2023-02-09T01:27:20.246Z,-5.59
2023-02-09T01:29:23.070Z,-5.43
2023-02-09T01:31:28.097Z,-5.30
2023-02-09T01:33:32.652Z,-5.26
2023-02-09T01:35:35.483Z,-5.18
2023-02-09T01:37:38.333Z,-5.11
2023-02-09T01:39:41.100Z,-5.05
2023-02-09T01:41:46.062Z,-5.01
2023-02-09T01:44:00.867Z,-5.10
2023-02-09T01:46:03.688Z,-5.19
2023-02-09T01:48:09.578Z,-5.03
2023-02-09T01:50:15.392Z,-5.45
2023-02-09T01:52:22.270Z,-5.07
2023-02-09T01:54:28.463Z,-5.50
2023-02-09T01:56:32.380Z,-5.50
2023-02-09T01:58:36.237Z,-5.53
2023-02-09T02:00:39.701Z,-5.37
2023-02-09T02:02:44.024Z,-5.36
2023-02-09T02:04:47.228Z,-5.70
2023-02-09T02:06:55.234Z,-5.28
2023-02-09T02:09:03.196Z,-5.57
2023-02-09T02:11:06.795Z,-5.45
2023-02-09T02:13:09.645Z,-5.53
2023-02-09T02:15:12.737Z,-5.26
2023-02-09T02:17:27.812Z,-5.21
2023-02-09T02:19:48.444Z,-5.40
2023-02-09T02:22:35.010Z,-5.43
2023-02-09T02:25:06.400Z,-5.45
2023-02-09T02:27:16.464Z,-5.43
2023-02-09T02:29:37.945Z,-5.44
2023-02-09T02:32:04.089Z,-5.32
2023-02-09T02:34:13.756Z,-5.33
2023-02-09T02:36:24.065Z,-5.43
2023-02-09T02:38:36.724Z,-5.31
2023-02-09T02:40:50.454Z,-5.33
2023-02-09T02:42:57.614Z,-5.77
2023-02-09T02:45:04.981Z,-6.01
2023-02-09T02:47:13.718Z,-5.35
2023-02-09T02:49:23.871Z,-6.22
2023-02-09T02:51:31.113Z,-5.99
2023-02-09T02:53:36.858Z,-5.61
2023-02-09T02:55:40.891Z,-5.34
2023-02-09T02:57:47.478Z,-5.38
2023-02-09T02:59:55.624Z,-6.42
2023-02-09T03:02:04.616Z,-5.97
2023-02-09T03:04:09.865Z,-5.44
2023-02-09T03:06:14.756Z,-5.40
2023-02-09T03:08:17.635Z,-5.46
2023-02-09T03:10:28.005Z,-5.59
2023-02-09T03:12:42.695Z,-5.48
2023-02-09T03:14:53.564Z,-5.53
2023-02-09T03:17:07.646Z,-5.51
2023-02-09T03:19:20.267Z,-5.24
2023-02-09T03:21:29.637Z,-5.65
2023-02-09T03:23:39.074Z,-5.35
2023-02-09T03:25:46.690Z,-5.08
2023-02-09T03:27:54.818Z,-5.01
2023-02-09T03:30:01.017Z,-5.14
2023-02-09T03:32:03.851Z,-4.88
2023-02-09T03:34:07.640Z,-4.85
2023-02-09T03:36:16.349Z,-4.80
2023-02-09T03:38:19.141Z,-4.77
2023-02-09T03:40:22.186Z,-5.07
2023-02-09T03:42:25.518Z,-4.74
2023-02-09T03:44:27.542Z,-4.75
2023-02-09T03:46:30.300Z,-4.74
2023-02-09T03:48:35.213Z,-4.82
2023-02-09T03:50:38.364Z,-5.08
2023-02-09T03:52:42.518Z,-4.60
2023-02-09T03:54:45.708Z,-5.49
2023-02-09T03:57:24.387Z,-4.95
2023-02-09T03:59:28.501Z,-4.84
2023-02-09T04:01:33.288Z,-4.77
2023-02-09T04:03:36.413Z,-4.83
2023-02-09T04:05:39.274Z,-5.05
2023-02-09T04:07:43.335Z,-4.94
2023-02-09T04:09:46.098Z,-4.97
2023-02-09T04:11:49.422Z,-5.61
2023-02-09T04:13:52.193Z,-5.08
2023-02-09T04:15:55.042Z,-5.55
2023-02-09T04:17:57.776Z,-5.47
2023-02-09T04:20:00.553Z,-5.20
2023-02-09T04:22:03.268Z,-5.30
2023-02-09T04:24:07.974Z,-5.27
2023-02-09T04:26:10.767Z,-5.26
2023-02-09T04:28:13.525Z,-5.14
2023-02-09T04:30:16.860Z,-5.09
2023-02-09T04:32:19.604Z,-5.09
2023-02-09T04:34:24.157Z,-5.06
2023-02-09T04:36:26.901Z,-5.06
2023-02-09T04:38:30.025Z,-5.39
2023-02-09T04:40:34.219Z,-5.03
2023-02-09T04:42:37.094Z,-5.05
2023-02-09T04:44:39.801Z,-5.06
2023-02-09T04:46:44.702Z,-5.12
2023-02-09T04:48:48.312Z,-5.12
2023-02-09T04:50:51.912Z,-5.09
2023-02-09T04:52:54.602Z,-5.09
2023-02-09T04:54:57.318Z,-5.20
2023-02-09T04:57:15.305Z,-5.89
2023-02-09T04:59:36.147Z,-5.37
2023-02-09T05:01:38.906Z,-5.78
2023-02-09T05:03:42.540Z,-5.58
2023-02-09T05:05:45.448Z,-5.38
2023-02-09T05:07:48.221Z,-5.37
2023-02-09T05:09:50.910Z,-5.35
2023-02-09T05:11:53.676Z,-5.33
2023-02-09T05:13:57.955Z,-5.30
2023-02-09T05:16:00.684Z,-5.75
2023-02-09T05:18:03.399Z,-5.29
2023-02-09T05:20:07.472Z,-6.55
2023-02-09T05:22:10.201Z,-5.49
2023-02-09T05:24:12.893Z,-5.34
2023-02-09T05:26:15.598Z,-5.71
2023-02-09T05:28:18.392Z,-5.54
2023-02-09T05:30:23.105Z,-5.36
2023-02-09T05:32:25.927Z,-5.73
2023-02-09T05:34:28.760Z,-5.41
2023-02-09T05:36:31.469Z,-5.39
2023-02-09T05:38:34.209Z,-5.45
2023-02-09T05:40:36.967Z,-5.48
2023-02-09T05:42:40.677Z,-5.77
2023-02-09T05:44:44.226Z,-6.29
2023-02-09T05:46:48.329Z,-5.75
2023-02-09T05:48:51.120Z,-5.84
2023-02-09T05:50:53.963Z,-5.86
2023-02-09T05:52:56.734Z,-6.17
2023-02-09T05:54:59.374Z,-6.07
2023-02-09T05:57:02.327Z,-5.93
2023-02-09T05:59:05.011Z,-5.85
2023-02-09T06:01:07.696Z,-5.84
2023-02-09T06:03:11.748Z,-5.75
2023-02-09T06:05:14.544Z,-5.78
2023-02-09T06:07:17.348Z,-5.88
2023-02-09T06:09:20.103Z,-5.90
2023-02-09T06:11:22.827Z,-6.40
2023-02-09T06:13:25.524Z,-5.90
2023-02-09T06:15:28.277Z,-5.92
2023-02-09T06:17:31.064Z,-6.05
2023-02-09T06:19:35.595Z,-6.44
2023-02-09T06:21:38.814Z,-6.34
2023-02-09T06:23:43.037Z,-6.42
2023-02-09T06:25:46.305Z,-5.88
2023-02-09T06:27:51.349Z,-5.89
2023-02-09T06:29:54.493Z,-5.91
2023-02-09T06:31:57.399Z,-5.90
2023-02-09T06:34:00.570Z,-5.91
2023-02-09T06:36:06.908Z,-5.89
2023-02-09T06:38:09.636Z,-5.91
2023-02-09T06:40:13.230Z,-6.04
2023-02-09T06:42:16.221Z,-6.36
2023-02-09T06:44:19.182Z,-6.00
2023-02-09T06:46:22.126Z,-6.02
2023-02-09T06:48:25.209Z,-6.05
2023-02-09T06:50:28.061Z,-6.15
2023-02-09T06:52:32.453Z,-6.10
2023-02-09T06:54:35.191Z,-6.12
2023-02-09T06:56:38.227Z,-6.17
2023-02-09T06:58:42.307Z,-6.13
2023-02-09T07:00:46.296Z,-6.05
2023-02-09T07:02:49.365Z,-6.60
2023-02-09T07:04:52.062Z,-5.95
2023-02-09T07:06:54.801Z,-6.27
2023-02-09T07:08:58.849Z,-5.92
2023-02-09T07:11:05.582Z,-6.08
2023-02-09T07:13:08.336Z,-6.23
2023-02-09T07:15:12.717Z,-6.17
2023-02-09T07:17:15.411Z,-6.26
2023-02-09T07:19:18.075Z,-6.06
2023-02-09T07:21:21.493Z,-5.92
2023-02-09T07:23:24.642Z,-5.80
2023-02-09T07:25:28.722Z,-5.74
2023-02-09T07:27:31.421Z,-5.64
2023-02-09T07:29:34.573Z,-5.55
2023-02-09T07:31:37.514Z,-5.41
2023-02-09T07:33:40.503Z,-5.27
2023-02-09T07:35:43.169Z,-5.19
2023-02-09T07:37:45.886Z,-5.04
2023-02-09T07:39:48.706Z,-4.86
2023-02-09T07:41:53.018Z,-5.66
2023-02-09T07:43:57.830Z,-4.66
2023-02-09T07:46:01.487Z,-4.76
2023-02-09T07:48:04.187Z,-4.63
2023-02-09T07:50:07.035Z,-4.46
2023-02-09T07:52:09.715Z,-4.32
2023-02-09T07:54:14.124Z,-4.19
2023-02-09T07:56:16.824Z,-4.23
2023-02-09T07:58:21.181Z,-4.00
2023-02-09T08:00:25.456Z,-3.92
2023-02-09T08:02:34.044Z,-3.81
2023-02-09T08:04:36.726Z,-3.81
2023-02-09T08:06:44.980Z,-3.68
2023-02-09T08:08:48.704Z,-3.74
2023-02-09T08:10:51.878Z,-3.61
2023-02-09T08:13:02.615Z,-3.57
2023-02-09T08:15:07.674Z,-3.49
2023-02-09T08:17:24.169Z,-3.43
2023-02-09T08:19:26.986Z,-3.34
2023-02-09T08:21:32.530Z,-3.49
2023-02-09T08:23:39.498Z,-3.27
2023-02-09T08:25:43.448Z,-3.25
2023-02-09T08:27:47.064Z,-3.24
2023-02-09T08:29:49.861Z,-3.17
2023-02-09T08:31:53.891Z,-3.09
2023-02-09T08:33:56.600Z,-2.98
2023-02-09T08:35:59.380Z,-2.91
2023-02-09T08:38:02.412Z,-2.89
2023-02-09T08:40:05.816Z,-2.76
2023-02-09T08:42:08.566Z,-2.67
2023-02-09T08:44:11.884Z,-2.67
2023-02-09T08:46:14.800Z,-2.67
2023-02-09T08:48:18.903Z,-2.58
2023-02-09T08:50:21.692Z,-2.40
2023-02-09T08:52:24.518Z,-2.26
2023-02-09T08:54:27.351Z,-2.22
2023-02-09T08:56:30.043Z,-2.15
2023-02-09T08:58:33.312Z,-2.12
2023-02-09T09:00:36.051Z,-1.98
2023-02-09T09:02:38.753Z,-1.86
2023-02-09T09:04:42.843Z,-1.73
2023-02-09T09:06:46.517Z,-1.66
2023-02-09T09:08:49.363Z,-1.62
2023-02-09T09:10:52.071Z,-1.53
2023-02-09T09:12:54.813Z,-1.42
2023-02-09T09:14:57.594Z,-1.20
2023-02-09T09:17:00.690Z,-1.03
2023-02-09T09:19:05.731Z,-1.76
2023-02-09T09:21:12.113Z,-0.77
2023-02-09T09:23:15.271Z,-0.63
2023-02-09T09:25:18.179Z,-0.52
2023-02-09T09:27:20.863Z,-0.40
2023-02-09T09:29:24.112Z,-0.33
2023-02-09T09:31:26.877Z,-0.27
2023-02-09T09:33:29.694Z,-0.15
2023-02-09T09:35:32.672Z,-0.13
2023-02-09T09:37:36.716Z,-0.69
2023-02-09T09:39:39.635Z,0.03
2023-02-09T09:41:42.430Z,-0.08
2023-02-09T09:43:45.261Z,0.14
2023-02-09T09:45:48.791Z,0.37
2023-02-09T09:47:52.284Z,0.61
2023-02-09T09:49:55.171Z,0.72
2023-02-09T09:52:01.366Z,0.79
2023-02-09T09:54:08.283Z,0.82
2023-02-09T09:56:14.090Z,0.94
2023-02-09T09:58:20.558Z,1.08
2023-02-09T10:00:26.440Z,1.10
2023-02-09T10:02:31.956Z,1.15
2023-02-09T10:04:35.138Z,1.37
2023-02-09T10:06:41.618Z,1.52
2023-02-09T10:08:50.947Z,1.55
2023-02-09T10:11:01.214Z,1.50
2023-02-09T10:13:09.631Z,1.86
2023-02-09T10:15:26.119Z,1.90
2023-02-09T10:17:28.830Z,2.26
2023-02-09T10:19:32.713Z,2.35
2023-02-09T10:21:37.302Z,2.44
2023-02-09T10:23:42.207Z,2.65
2023-02-09T10:25:59.220Z,2.75
2023-02-09T10:28:06.441Z,2.85
2023-02-09T10:30:20.539Z,2.76
2023-02-09T10:32:25.002Z,3.34
2023-02-09T10:34:33.500Z,3.47
2023-02-09T10:36:38.741Z,3.70
2023-02-09T10:38:42.025Z,3.72
2023-02-09T10:40:47.474Z,3.87
2023-02-09T10:42:56.997Z,3.89
2023-02-09T10:45:08.198Z,4.10
2023-02-09T10:47:23.766Z,4.16
2023-02-09T10:49:32.027Z,4.31
2023-02-09T10:51:34.996Z,4.33
2023-02-09T10:53:39.810Z,4.51
2023-02-09T10:55:43.360Z,4.75
2023-02-09T10:57:46.180Z,4.95
2023-02-09T10:59:54.606Z,5.12
2023-02-09T11:01:59.439Z,5.28
2023-02-09T11:04:04.767Z,5.34
2023-02-09T11:06:16.429Z,5.32
2023-02-09T11:08:22.803Z,5.36
2023-02-09T11:10:26.910Z,5.55
2023-02-09T11:12:30.285Z,5.70
2023-02-09T11:14:32.957Z,5.72
2023-02-09T11:16:58.368Z,5.86
2023-02-09T11:19:08.563Z,6.03
2023-02-09T11:21:19.798Z,6.02
2023-02-09T11:23:37.030Z,5.97
2023-02-09T11:25:46.577Z,6.24
2023-02-09T11:28:04.476Z,6.26
2023-02-09T11:30:19.440Z,6.39
2023-02-09T11:32:34.294Z,6.52
2023-02-09T11:34:54.806Z,6.63
2023-02-09T11:37:07.787Z,6.75
2023-02-09T11:39:20.221Z,6.81
2023-02-09T11:41:59.097Z,7.10
2023-02-09T11:44:06.844Z,6.88
2023-02-09T11:46:15.671Z,6.61
2023-02-09T11:48:25.896Z,6.83
2023-02-09T11:50:34.411Z,6.61
2023-02-09T11:52:40.535Z,7.50
2023-02-09T11:54:48.495Z,7.52
2023-02-09T11:56:54.070Z,7.66
2023-02-09T11:59:02.074Z,7.83
2023-02-09T12:01:15.880Z,8.15
2023-02-09T12:03:18.965Z,8.37
2023-02-09T12:05:24.902Z,8.20
2023-02-09T12:07:35.373Z,7.85
2023-02-09T12:09:49.922Z,8.43
2023-02-09T12:12:04.768Z,8.51
2023-02-09T12:14:21.168Z,8.62
2023-02-09T12:16:27.543Z,8.70
2023-02-09T12:18:34.197Z,8.81
2023-02-09T12:20:52.373Z,8.94
2023-02-09T12:23:01.034Z,8.91
2023-02-09T12:25:19.292Z,8.92
2023-02-09T12:27:27.263Z,8.90
2023-02-09T12:29:39.394Z,8.65
2023-02-09T12:32:15.200Z,8.96
2023-02-09T12:34:30.303Z,9.09
2023-02-09T12:36:35.835Z,9.39
2023-02-09T12:39:07.444Z,9.49
2023-02-09T12:41:12.893Z,9.48
2023-02-09T12:43:30.804Z,9.76
2023-02-09T12:45:36.877Z,9.93
2023-02-09T12:47:55.596Z,10.11
2023-02-09T12:50:05.164Z,9.84
2023-02-09T12:52:17.831Z,10.24
2023-02-09T12:54:30.208Z,9.92
2023-02-09T12:56:34.257Z,9.60
2023-02-09T12:58:40.126Z,9.58
2023-02-09T13:00:53.781Z,10.47
2023-02-09T13:02:57.585Z,10.39
2023-02-09T13:05:05.113Z,10.18
2023-02-09T13:07:18.587Z,10.58
2023-02-09T13:09:29.012Z,10.98
2023-02-09T13:11:41.428Z,11.04
2023-02-09T13:13:50.557Z,11.04
2023-02-09T13:16:10.125Z,11.07
2023-02-09T13:18:21.038Z,11.32
2023-02-09T13:20:41.008Z,11.56
2023-02-09T13:22:57.836Z,10.82
2023-02-09T13:25:11.547Z,10.88
2023-02-09T13:27:24.494Z,11.56
2023-02-09T13:29:28.779Z,11.43
2023-02-09T13:31:36.909Z,11.72
2023-02-09T13:33:47.463Z,11.99
2023-02-09T13:36:08.847Z,12.07
2023-02-09T13:38:17.731Z,12.21
2023-02-09T13:40:24.786Z,12.28
2023-02-09T13:42:29.910Z,12.47
2023-02-09T13:44:35.019Z,12.12
2023-02-09T13:46:39.270Z,11.80
2023-02-09T13:48:41.986Z,11.74
2023-02-09T13:50:48.274Z,12.03
2023-02-09T13:52:51.813Z,11.99
2023-02-09T13:54:55.193Z,12.14
2023-02-09T13:57:01.702Z,11.44
2023-02-09T13:59:04.955Z,10.81
2023-02-09T14:01:10.333Z,11.25
2023-02-09T14:03:18.777Z,11.14
2023-02-09T14:05:27.407Z,11.84
2023-02-09T14:07:35.257Z,12.15
2023-02-09T14:09:45.143Z,11.47
2023-02-09T14:11:52.942Z,10.88
2023-02-09T14:14:02.086Z,11.20
2023-02-09T14:16:06.839Z,11.95
2023-02-09T14:18:43.108Z,10.32
2023-02-09T14:20:59.812Z,9.20
2023-02-09T14:23:02.984Z,10.55
2023-02-09T14:25:18.058Z,10.23
2023-02-09T14:27:24.130Z,9.35
2023-02-09T14:29:30.277Z,10.06
2023-02-09T14:31:36.373Z,9.43
2023-02-09T14:33:39.259Z,9.42
2023-02-09T14:35:42.656Z,9.71
2023-02-09T14:37:46.457Z,10.20
2023-02-09T14:39:56.681Z,9.28
2023-02-09T14:42:17.732Z,9.43
2023-02-09T14:44:22.225Z,9.77
2023-02-09T14:46:26.326Z,10.18
2023-02-09T14:48:31.223Z,10.66
2023-02-09T14:50:33.952Z,10.27
2023-02-09T14:52:38.901Z,10.67
2023-02-09T14:54:48.225Z,10.37
2023-02-09T14:56:51.420Z,11.25
2023-02-09T14:58:55.459Z,11.25
2023-02-09T15:01:01.088Z,11.09
2023-02-09T15:03:05.271Z,10.73
2023-02-09T15:05:08.290Z,10.33
2023-02-09T15:07:13.372Z,10.59
2023-02-09T15:09:22.412Z,10.74
2023-02-09T15:11:43.161Z,11.03
2023-02-09T15:13:45.903Z,10.62
2023-02-09T15:15:49.171Z,9.92
2023-02-09T15:17:54.153Z,10.58
2023-02-09T15:19:59.390Z,10.21
2023-02-09T15:22:07.896Z,9.28
2023-02-09T15:24:10.787Z,8.47
2023-02-09T15:26:16.926Z,8.32
2023-02-09T15:28:28.138Z,7.33
2023-02-09T15:30:34.051Z,7.80
2023-02-09T15:32:36.770Z,7.78
2023-02-09T15:34:39.472Z,8.57
2023-02-09T15:36:43.586Z,7.33
2023-02-09T15:38:46.802Z,7.04
2023-02-09T15:41:08.692Z,6.54
2023-02-09T15:43:36.891Z,5.88
2023-02-09T15:45:57.418Z,5.45
2023-02-09T15:48:00.685Z,5.20
2023-02-09T15:50:03.618Z,4.22
2023-02-09T15:52:08.324Z,4.16
2023-02-09T15:54:16.518Z,4.67
2023-02-09T15:56:20.590Z,4.92
2023-02-09T15:58:35.284Z,4.55
2023-02-09T16:00:38.274Z,4.03
2023-02-09T16:02:41.025Z,4.17
2023-02-09T16:04:44.256Z,4.13
2023-02-09T16:06:50.515Z,3.82
2023-02-09T16:08:55.481Z,4.14
2023-02-09T16:10:58.244Z,3.88
2023-02-09T16:13:01.120Z,3.82
2023-02-09T16:15:03.908Z,3.90
2023-02-09T16:17:07.717Z,3.64
2023-02-09T16:19:10.521Z,3.61
2023-02-09T16:21:21.046Z,3.68
2023-02-09T16:23:25.003Z,3.59
2023-02-09T16:25:30.938Z,3.23
2023-02-09T16:27:33.749Z,3.28
2023-02-09T16:29:36.448Z,2.96
2023-02-09T16:31:39.280Z,2.85
2023-02-09T16:33:43.346Z,2.45
2023-02-09T16:35:54.600Z,2.44
2023-02-09T16:37:59.200Z,2.73
2023-02-09T16:40:08.436Z,2.48
2023-02-09T16:42:15.259Z,1.54
2023-02-09T16:44:20.843Z,2.39
2023-02-09T16:46:23.603Z,2.31
2023-02-09T16:48:29.040Z,1.71
2023-02-09T16:50:33.874Z,1.96
2023-02-09T16:52:36.655Z,1.84
2023-02-09T16:54:43.169Z,1.84
2023-02-09T16:56:54.023Z,1.75
2023-02-09T16:58:58.508Z,1.73
2023-02-09T17:01:01.350Z,1.72
2023-02-09T17:03:14.024Z,0.78
2023-02-09T17:05:21.411Z,1.55
2023-02-09T17:07:30.229Z,1.47
2023-02-09T17:09:32.925Z,1.54
2023-02-09T17:11:35.646Z,1.58
2023-02-09T17:13:38.338Z,1.51
2023-02-09T17:15:45.050Z,1.47
2023-02-09T17:17:52.882Z,1.42
2023-02-09T17:19:56.558Z,1.16
2023-02-09T17:22:00.344Z,1.26
2023-02-09T17:24:05.140Z,1.18
2023-02-09T17:26:07.882Z,1.20
2023-02-09T17:28:10.905Z,1.20
2023-02-09T17:30:19.353Z,1.26
2023-02-09T17:32:23.545Z,1.23
2023-02-09T17:34:28.362Z,1.05
2023-02-09T17:36:31.737Z,0.75
2023-02-09T17:38:40.892Z,1.08
2023-02-09T17:40:43.878Z,0.85
2023-02-09T17:42:47.755Z,0.66
2023-02-09T17:44:51.405Z,0.33
2023-02-09T17:46:54.752Z,0.64
2023-02-09T17:48:58.980Z,0.98
2023-02-09T17:51:02.750Z,0.83
2023-02-09T17:53:13.322Z,0.59
2023-02-09T17:55:25.498Z,0.64
2023-02-09T17:57:28.311Z,0.55
2023-02-09T17:59:31.372Z,0.49
2023-02-09T18:01:34.162Z,0.57
2023-02-09T18:03:36.938Z,0.74
2023-02-09T18:05:41.424Z,0.06
2023-02-09T18:07:48.707Z,0.41
2023-02-09T18:09:51.934Z,0.48
2023-02-09T18:12:02.018Z,0.23
2023-02-09T18:14:04.821Z,0.03
2023-02-09T18:16:08.226Z,0.10
2023-02-09T18:18:11.318Z,0.26
2023-02-09T18:20:17.561Z,0.55
2023-02-09T18:22:21.690Z,0.57
2023-02-09T18:24:25.665Z,0.66
2023-02-09T18:26:35.309Z,0.70
2023-02-09T18:28:38.003Z,0.51
2023-02-09T18:30:41.809Z,0.53
2023-02-09T18:32:44.650Z,0.55
2023-02-09T18:34:47.398Z,0.50
2023-02-09T18:36:50.203Z,0.56
2023-02-09T18:38:54.914Z,0.54
2023-02-09T18:40:58.788Z,0.49
2023-02-09T18:43:03.335Z,0.37
2023-02-09T18:45:06.735Z,0.81
2023-02-09T18:47:10.756Z,0.58
2023-02-09T18:49:13.556Z,0.39
2023-02-09T18:51:16.237Z,0.32
2023-02-09T18:53:22.041Z,0.31
2023-02-09T18:55:29.291Z,0.25
2023-02-09T18:57:31.971Z,0.25
2023-02-09T18:59:35.318Z,0.23
2023-02-09T19:01:38.507Z,0.18
2023-02-09T19:03:41.249Z,0.13
2023-02-09T19:05:44.616Z,0.13
2023-02-09T19:07:47.859Z,-0.52
2023-02-09T19:09:50.577Z,0.18
2023-02-09T19:11:54.618Z,-0.08
2023-02-09T19:14:14.883Z,0.05
2023-02-09T19:16:17.576Z,-0.10
2023-02-09T19:18:24.726Z,-0.07
2023-02-09T19:20:32.349Z,-0.07
2023-02-09T19:22:35.923Z,-0.18
2023-02-09T19:24:38.705Z,-0.25
2023-02-09T19:26:41.453Z,-0.32
2023-02-09T19:28:45.467Z,-0.31
2023-02-09T19:30:48.232Z,-0.27
2023-02-09T19:32:51.269Z,-0.30
2023-02-09T19:34:56.533Z,-0.20
2023-02-09T19:36:59.699Z,-0.39
2023-02-09T19:39:02.601Z,-0.62
2023-02-09T19:41:10.695Z,-0.42
2023-02-09T19:43:13.841Z,-0.58
2023-02-09T19:45:19.326Z,-0.40
2023-02-09T19:47:25.874Z,-0.40
2023-02-09T19:49:29.410Z,-0.40
2023-02-09T19:51:32.516Z,-0.55
2023-02-09T19:53:36.008Z,-0.70
2023-02-09T19:55:40.798Z,-0.88
2023-02-09T19:57:43.517Z,-1.58
2023-02-09T19:59:46.238Z,-0.66
2023-02-09T20:01:50.308Z,-0.50
2023-02-09T20:03:53.190Z,-0.82
2023-02-09T20:05:55.854Z,-0.68
2023-02-09T20:07:58.734Z,-0.43
2023-02-09T20:10:01.418Z,-0.48
2023-02-09T20:12:04.463Z,-0.51
2023-02-09T20:14:07.472Z,-0.60
2023-02-09T20:16:12.527Z,-0.73
2023-02-09T20:18:17.671Z,-0.80
2023-02-09T20:20:23.611Z,-1.16
2023-02-09T20:22:26.516Z,-1.18
2023-02-09T20:24:29.248Z,-0.98
2023-02-09T20:26:33.257Z,-0.83
2023-02-09T20:28:36.127Z,-1.59
2023-02-09T20:30:42.041Z,-0.87
2023-02-09T20:32:44.714Z,-0.86
2023-02-09T20:34:48.749Z,-0.86
2023-02-09T20:36:51.408Z,-0.91
2023-02-09T20:38:54.279Z,-1.17
2023-02-09T20:40:56.958Z,-1.09
2023-02-09T20:43:17.373Z,-1.43
2023-02-09T20:45:37.831Z,-1.38
2023-02-09T20:47:40.661Z,-1.11
2023-02-09T20:49:43.683Z,-1.11
2023-02-09T20:51:48.116Z,-1.13
2023-02-09T20:53:51.245Z,-1.20
2023-02-09T20:55:55.239Z,-1.21
2023-02-09T20:57:59.151Z,-1.20
2023-02-09T21:00:04.624Z,-1.27
2023-02-09T21:02:07.394Z,-1.13
2023-02-09T21:04:10.288Z,-1.53
2023-02-09T21:06:13.581Z,-1.38
2023-02-09T21:08:18.078Z,-1.40
2023-02-09T21:10:20.987Z,-1.36
2023-02-09T21:12:24.536Z,-1.47
2023-02-09T21:14:41.344Z,-1.41
2023-02-09T21:16:45.276Z,-1.41
2023-02-09T21:18:47.993Z,-1.42
2023-02-09T21:20:50.848Z,-1.48
2023-02-09T21:22:53.763Z,-1.37
2023-02-09T21:24:57.781Z,-1.55
2023-02-09T21:27:00.978Z,-1.55
2023-02-09T21:29:03.718Z,-1.45
2023-02-09T21:31:10.539Z,-1.51
2023-02-09T21:33:13.315Z,-1.47
2023-02-09T21:35:16.724Z,-2.19
2023-02-09T21:37:20.407Z,-1.56
2023-02-09T21:39:23.150Z,-1.45
2023-02-09T21:41:45.268Z,-1.69
2023-02-09T21:43:48.514Z,-1.44
2023-02-09T21:45:51.289Z,-1.51
2023-02-09T21:47:54.011Z,-1.53
2023-02-09T21:49:57.298Z,-1.51
2023-02-09T21:52:00.407Z,-1.56
2023-02-09T21:54:03.151Z,-1.54
2023-02-09T21:56:07.149Z,-1.47
2023-02-09T21:58:11.211Z,-1.51
2023-02-09T22:00:15.352Z,-1.38
2023-02-09T22:02:19.503Z,-1.40
2023-02-09T22:04:22.387Z,-1.55
2023-02-09T22:06:26.208Z,-1.48
2023-02-09T22:08:29.850Z,-1.48
2023-02-09T22:10:32.599Z,-1.43
2023-02-09T22:12:36.418Z,-1.47
2023-02-09T22:14:40.577Z,-1.56
2023-02-09T22:16:43.498Z,-1.48
2023-02-09T22:18:46.366Z,-1.51
2023-02-09T22:20:50.773Z,-1.77
2023-02-09T22:22:53.496Z,-1.50
2023-02-09T22:24:57.187Z,-1.62
2023-02-09T22:27:00.021Z,-1.88
2023-02-09T22:29:02.790Z,-1.71
2023-02-09T22:31:08.561Z,-1.58
2023-02-09T22:33:11.331Z,-1.57
2023-02-09T22:35:14.068Z,-1.57
2023-02-09T22:37:16.844Z,-1.71
2023-02-09T22:39:19.853Z,-1.77
2023-02-09T22:41:24.645Z,-1.84
2023-02-09T22:43:27.967Z,-1.77
2023-02-09T22:45:30.772Z,-1.98
2023-02-09T22:47:35.643Z,-1.83
2023-02-09T22:49:38.403Z,-1.90
2023-02-09T22:51:41.114Z,-1.78
2023-02-09T22:53:43.915Z,-1.66
2023-02-09T22:55:48.356Z,-2.13
2023-02-09T22:57:51.258Z,-2.14
2023-02-09T22:59:54.033Z,-1.82
2023-02-09T23:01:56.794Z,-1.87
2023-02-09T23:04:01.212Z,-1.86
2023-02-09T23:06:05.821Z,-2.29
2023-02-09T23:08:08.688Z,-1.79
2023-02-09T23:10:11.459Z,-1.88
2023-02-09T23:12:14.186Z,-1.80
2023-02-09T23:14:18.226Z,-1.92
2023-02-09T23:16:23.497Z,-1.82
2023-02-09T23:18:26.196Z,-2.12
2023-02-09T23:20:30.313Z,-1.91
2023-02-09T23:22:33.022Z,-2.12
2023-02-09T23:24:35.759Z,-2.11
2023-02-09T23:26:38.907Z,-1.95
2023-02-09T23:28:41.613Z,-1.84
2023-02-09T23:30:45.271Z,-1.82
2023-02-09T23:32:49.266Z,-2.36
2023-02-09T23:34:52.002Z,-1.93
2023-02-09T23:36:57.374Z,-1.95
2023-02-09T23:39:04.810Z,-2.03
2023-02-09T23:41:08.630Z,-2.10
2023-02-09T23:43:11.357Z,-2.04
2023-02-09T23:45:14.192Z,-2.27
2023-02-09T23:47:17.075Z,-2.13
2023-02-09T23:49:19.849Z,-2.18
2023-02-09T23:51:26.464Z,-2.05
2023-02-09T23:53:31.447Z,-1.99
2023-02-09T23:55:34.157Z,-1.96
2023-02-09T23:57:36.839Z,-1.73
2023-02-09T23:59:40.285Z,-1.72
